sensor_id;sensor_type;location;lat;lon;timestamp;temperature;humidity
25450;DHT22;13371;52.080;5.624;2023-08-30T00:00:39;17.60;96.30
25450;DHT22;13371;52.080;5.624;2023-08-30T00:03:04;17.60;96.20
25450;DHT22;13371;52.080;5.624;2023-08-30T00:05:31;17.80;96.50
25450;DHT22;13371;52.080;5.624;2023-08-30T00:07:57;17.70;95.90
25450;DHT22;13371;52.080;5.624;2023-08-30T00:10:22;17.60;95.90
25450;DHT22;13371;52.080;5.624;2023-08-30T00:12:48;17.60;96.20
25450;DHT22;13371;52.080;5.624;2023-08-30T00:15:14;17.70;95.80
25450;DHT22;13371;52.080;5.624;2023-08-30T00:17:39;17.60;95.80
25450;DHT22;13371;52.080;5.624;2023-08-30T00:20:06;17.70;95.70
25450;DHT22;13371;52.080;5.624;2023-08-30T00:22:32;17.80;95.80
25450;DHT22;13371;52.080;5.624;2023-08-30T00:24:57;17.70;95.70
25450;DHT22;13371;52.080;5.624;2023-08-30T00:27:23;17.70;95.90
25450;DHT22;13371;52.080;5.624;2023-08-30T00:29:49;17.40;95.90
25450;DHT22;13371;52.080;5.624;2023-08-30T00:32:14;17.40;96.10
25450;DHT22;13371;52.080;5.624;2023-08-30T00:34:40;17.40;95.90
25450;DHT22;13371;52.080;5.624;2023-08-30T00:37:06;17.40;96.00
25450;DHT22;13371;52.080;5.624;2023-08-30T00:39:31;17.40;95.70
25450;DHT22;13371;52.080;5.624;2023-08-30T00:41:57;17.40;95.80
25450;DHT22;13371;52.080;5.624;2023-08-30T00:44:22;17.50;95.60
25450;DHT22;13371;52.080;5.624;2023-08-30T00:46:48;17.30;95.80
25450;DHT22;13371;52.080;5.624;2023-08-30T00:49:14;17.40;95.50
25450;DHT22;13371;52.080;5.624;2023-08-30T00:51:40;17.40;95.30
25450;DHT22;13371;52.080;5.624;2023-08-30T00:54:06;17.40;95.30
25450;DHT22;13371;52.080;5.624;2023-08-30T00:56:32;17.40;95.20
25450;DHT22;13371;52.080;5.624;2023-08-30T00:58:59;17.40;95.30
25450;DHT22;13371;52.080;5.624;2023-08-30T01:01:25;17.40;95.00
25450;DHT22;13371;52.080;5.624;2023-08-30T01:03:51;17.10;95.20
25450;DHT22;13371;52.080;5.624;2023-08-30T01:06:16;17.00;95.30
25450;DHT22;13371;52.080;5.624;2023-08-30T01:08:43;16.90;95.40
25450;DHT22;13371;52.080;5.624;2023-08-30T01:14:07;16.90;95.60
25450;DHT22;13371;52.080;5.624;2023-08-30T01:16:35;16.90;95.50
25450;DHT22;13371;52.080;5.624;2023-08-30T01:21:56;16.70;95.80
25450;DHT22;13371;52.080;5.624;2023-08-30T01:24:41;16.40;96.80
25450;DHT22;13371;52.080;5.624;2023-08-30T01:27:11;15.90;98.00
25450;DHT22;13371;52.080;5.624;2023-08-30T01:29:43;15.70;98.50
25450;DHT22;13371;52.080;5.624;2023-08-30T01:32:10;15.80;98.90
25450;DHT22;13371;52.080;5.624;2023-08-30T01:34:37;15.60;98.70
25450;DHT22;13371;52.080;5.624;2023-08-30T01:37:06;15.90;98.90
25450;DHT22;13371;52.080;5.624;2023-08-30T01:39:34;16.00;98.40
25450;DHT22;13371;52.080;5.624;2023-08-30T01:42:01;16.10;98.50
25450;DHT22;13371;52.080;5.624;2023-08-30T01:44:28;16.10;98.80
25450;DHT22;13371;52.080;5.624;2023-08-30T01:46:55;15.90;98.60
25450;DHT22;13371;52.080;5.624;2023-08-30T01:49:22;16.20;98.60
25450;DHT22;13371;52.080;5.624;2023-08-30T01:51:49;16.20;98.20
25450;DHT22;13371;52.080;5.624;2023-08-30T01:54:18;16.40;98.10
25450;DHT22;13371;52.080;5.624;2023-08-30T01:56:44;16.60;97.80
25450;DHT22;13371;52.080;5.624;2023-08-30T01:59:11;16.40;98.00
25450;DHT22;13371;52.080;5.624;2023-08-30T02:01:36;16.50;97.80
25450;DHT22;13371;52.080;5.624;2023-08-30T02:04:02;16.50;97.70
25450;DHT22;13371;52.080;5.624;2023-08-30T02:06:54;16.30;97.90
25450;DHT22;13371;52.080;5.624;2023-08-30T02:09:24;16.50;97.80
25450;DHT22;13371;52.080;5.624;2023-08-30T02:11:51;16.30;98.30
25450;DHT22;13371;52.080;5.624;2023-08-30T02:14:18;16.60;97.90
25450;DHT22;13371;52.080;5.624;2023-08-30T02:16:46;16.40;97.60
25450;DHT22;13371;52.080;5.624;2023-08-30T02:19:13;16.50;97.60
25450;DHT22;13371;52.080;5.624;2023-08-30T02:21:42;16.60;97.50
25450;DHT22;13371;52.080;5.624;2023-08-30T02:24:08;16.60;97.40
25450;DHT22;13371;52.080;5.624;2023-08-30T02:26:34;16.40;97.40
25450;DHT22;13371;52.080;5.624;2023-08-30T02:28:59;16.30;98.10
25450;DHT22;13371;52.080;5.624;2023-08-30T02:31:25;16.10;98.40
25450;DHT22;13371;52.080;5.624;2023-08-30T02:33:50;15.80;98.90
25450;DHT22;13371;52.080;5.624;2023-08-30T02:36:16;15.80;99.20
25450;DHT22;13371;52.080;5.624;2023-08-30T02:38:42;15.30;99.70
25450;DHT22;13371;52.080;5.624;2023-08-30T02:41:07;15.50;99.90
25450;DHT22;13371;52.080;5.624;2023-08-30T02:43:33;16.00;98.90
25450;DHT22;13371;52.080;5.624;2023-08-30T02:45:58;15.90;98.60
25450;DHT22;13371;52.080;5.624;2023-08-30T02:48:24;15.90;98.80
25450;DHT22;13371;52.080;5.624;2023-08-30T02:50:49;16.00;98.50
25450;DHT22;13371;52.080;5.624;2023-08-30T02:53:15;16.20;98.20
25450;DHT22;13371;52.080;5.624;2023-08-30T02:55:41;16.10;98.00
25450;DHT22;13371;52.080;5.624;2023-08-30T02:58:06;15.90;98.40
25450;DHT22;13371;52.080;5.624;2023-08-30T03:00:32;16.20;98.00
25450;DHT22;13371;52.080;5.624;2023-08-30T03:02:59;16.10;98.30
25450;DHT22;13371;52.080;5.624;2023-08-30T03:05:26;16.40;97.80
25450;DHT22;13371;52.080;5.624;2023-08-30T03:07:53;16.40;97.50
25450;DHT22;13371;52.080;5.624;2023-08-30T03:10:18;16.50;97.30
25450;DHT22;13371;52.080;5.624;2023-08-30T03:12:44;16.60;96.80
25450;DHT22;13371;52.080;5.624;2023-08-30T03:15:10;16.70;96.60
25450;DHT22;13371;52.080;5.624;2023-08-30T03:17:36;16.70;96.70
25450;DHT22;13371;52.080;5.624;2023-08-30T03:20:02;16.70;96.40
25450;DHT22;13371;52.080;5.624;2023-08-30T03:22:29;16.80;96.30
25450;DHT22;13371;52.080;5.624;2023-08-30T03:24:55;16.80;96.10
25450;DHT22;13371;52.080;5.624;2023-08-30T03:27:21;16.50;96.40
25450;DHT22;13371;52.080;5.624;2023-08-30T03:29:47;16.20;97.00
25450;DHT22;13371;52.080;5.624;2023-08-30T03:32:17;16.00;97.20
25450;DHT22;13371;52.080;5.624;2023-08-30T03:34:47;15.80;97.80
25450;DHT22;13371;52.080;5.624;2023-08-30T03:37:16;15.90;97.80
25450;DHT22;13371;52.080;5.624;2023-08-30T03:39:42;16.10;97.60
25450;DHT22;13371;52.080;5.624;2023-08-30T03:42:07;16.10;97.50
25450;DHT22;13371;52.080;5.624;2023-08-30T03:44:33;16.10;97.50
25450;DHT22;13371;52.080;5.624;2023-08-30T03:46:59;16.30;96.70
25450;DHT22;13371;52.080;5.624;2023-08-30T03:49:24;16.50;96.50
25450;DHT22;13371;52.080;5.624;2023-08-30T03:51:50;16.40;96.20
25450;DHT22;13371;52.080;5.624;2023-08-30T03:54:16;16.30;96.90
25450;DHT22;13371;52.080;5.624;2023-08-30T03:56:45;16.30;96.80
25450;DHT22;13371;52.080;5.624;2023-08-30T03:59:11;16.40;96.20
25450;DHT22;13371;52.080;5.624;2023-08-30T04:01:37;16.60;95.90
25450;DHT22;13371;52.080;5.624;2023-08-30T04:04:03;16.60;95.80
25450;DHT22;13371;52.080;5.624;2023-08-30T04:06:28;16.70;95.60
25450;DHT22;13371;52.080;5.624;2023-08-30T04:08:54;16.60;95.50
25450;DHT22;13371;52.080;5.624;2023-08-30T04:11:20;16.40;95.60
25450;DHT22;13371;52.080;5.624;2023-08-30T04:13:45;16.50;96.00
25450;DHT22;13371;52.080;5.624;2023-08-30T04:16:11;16.40;96.00
25450;DHT22;13371;52.080;5.624;2023-08-30T04:18:36;16.50;95.80
25450;DHT22;13371;52.080;5.624;2023-08-30T04:21:02;16.50;95.70
25450;DHT22;13371;52.080;5.624;2023-08-30T04:23:31;16.50;95.40
25450;DHT22;13371;52.080;5.624;2023-08-30T04:25:56;16.40;95.70
25450;DHT22;13371;52.080;5.624;2023-08-30T04:28:22;16.40;95.50
25450;DHT22;13371;52.080;5.624;2023-08-30T04:30:47;16.50;95.30
25450;DHT22;13371;52.080;5.624;2023-08-30T04:33:13;16.70;95.20
25450;DHT22;13371;52.080;5.624;2023-08-30T04:35:39;16.40;95.20
25450;DHT22;13371;52.080;5.624;2023-08-30T04:38:05;16.50;95.20
25450;DHT22;13371;52.080;5.624;2023-08-30T04:40:31;16.40;95.20
25450;DHT22;13371;52.080;5.624;2023-08-30T04:43:00;16.30;95.10
25450;DHT22;13371;52.080;5.624;2023-08-30T04:45:26;16.50;95.00
25450;DHT22;13371;52.080;5.624;2023-08-30T04:47:53;16.40;94.90
25450;DHT22;13371;52.080;5.624;2023-08-30T04:50:18;16.40;95.00
25450;DHT22;13371;52.080;5.624;2023-08-30T04:52:44;16.30;95.10
25450;DHT22;13371;52.080;5.624;2023-08-30T04:55:10;16.00;95.40
25450;DHT22;13371;52.080;5.624;2023-08-30T04:57:35;15.80;95.80
25450;DHT22;13371;52.080;5.624;2023-08-30T05:00:01;15.50;96.50
25450;DHT22;13371;52.080;5.624;2023-08-30T05:02:30;15.60;96.50
25450;DHT22;13371;52.080;5.624;2023-08-30T05:04:56;15.60;96.40
25450;DHT22;13371;52.080;5.624;2023-08-30T05:07:21;15.70;96.20
25450;DHT22;13371;52.080;5.624;2023-08-30T05:09:47;15.50;96.20
25450;DHT22;13371;52.080;5.624;2023-08-30T05:12:12;15.50;96.60
25450;DHT22;13371;52.080;5.624;2023-08-30T05:14:38;15.50;96.70
25450;DHT22;13371;52.080;5.624;2023-08-30T05:17:06;15.50;96.80
25450;DHT22;13371;52.080;5.624;2023-08-30T05:19:31;15.60;96.70
25450;DHT22;13371;52.080;5.624;2023-08-30T05:21:57;15.50;96.90
25450;DHT22;13371;52.080;5.624;2023-08-30T05:24:23;15.50;96.80
25450;DHT22;13371;52.080;5.624;2023-08-30T05:26:48;15.70;96.50
25450;DHT22;13371;52.080;5.624;2023-08-30T05:29:14;15.80;96.70
25450;DHT22;13371;52.080;5.624;2023-08-30T05:31:41;15.80;96.20
25450;DHT22;13371;52.080;5.624;2023-08-30T05:34:07;15.80;96.20
25450;DHT22;13371;52.080;5.624;2023-08-30T05:36:32;15.80;96.50
25450;DHT22;13371;52.080;5.624;2023-08-30T05:38:58;15.50;96.80
25450;DHT22;13371;52.080;5.624;2023-08-30T05:41:23;15.30;97.30
25450;DHT22;13371;52.080;5.624;2023-08-30T05:43:51;15.30;97.50
25450;DHT22;13371;52.080;5.624;2023-08-30T05:46:16;15.40;97.70
25450;DHT22;13371;52.080;5.624;2023-08-30T05:48:42;15.60;97.20
25450;DHT22;13371;52.080;5.624;2023-08-30T05:51:08;15.80;97.00
25450;DHT22;13371;52.080;5.624;2023-08-30T05:53:34;15.60;97.30
25450;DHT22;13371;52.080;5.624;2023-08-30T05:56:00;15.50;97.60
25450;DHT22;13371;52.080;5.624;2023-08-30T05:58:25;15.50;97.50
25450;DHT22;13371;52.080;5.624;2023-08-30T06:00:51;15.60;97.60
25450;DHT22;13371;52.080;5.624;2023-08-30T06:03:16;15.60;97.90
25450;DHT22;13371;52.080;5.624;2023-08-30T06:05:42;15.60;97.90
25450;DHT22;13371;52.080;5.624;2023-08-30T06:08:10;15.60;98.10
25450;DHT22;13371;52.080;5.624;2023-08-30T06:10:37;16.00;97.60
25450;DHT22;13371;52.080;5.624;2023-08-30T06:13:04;16.00;97.50
25450;DHT22;13371;52.080;5.624;2023-08-30T06:15:29;16.10;97.30
25450;DHT22;13371;52.080;5.624;2023-08-30T06:17:55;16.10;97.40
25450;DHT22;13371;52.080;5.624;2023-08-30T06:20:21;16.30;97.20
25450;DHT22;13371;52.080;5.624;2023-08-30T06:22:46;16.30;97.20
25450;DHT22;13371;52.080;5.624;2023-08-30T06:25:12;16.40;97.00
25450;DHT22;13371;52.080;5.624;2023-08-30T06:27:42;16.70;96.70
25450;DHT22;13371;52.080;5.624;2023-08-30T06:30:12;16.70;96.40
25450;DHT22;13371;52.080;5.624;2023-08-30T06:32:37;16.80;96.50
25450;DHT22;13371;52.080;5.624;2023-08-30T06:35:03;16.90;96.50
25450;DHT22;13371;52.080;5.624;2023-08-30T06:37:29;16.90;96.20
25450;DHT22;13371;52.080;5.624;2023-08-30T06:39:55;16.90;96.70
25450;DHT22;13371;52.080;5.624;2023-08-30T06:42:20;16.90;96.40
25450;DHT22;13371;52.080;5.624;2023-08-30T06:44:46;16.70;96.50
25450;DHT22;13371;52.080;5.624;2023-08-30T06:47:12;16.70;96.60
25450;DHT22;13371;52.080;5.624;2023-08-30T06:49:37;16.90;96.50
25450;DHT22;13371;52.080;5.624;2023-08-30T06:52:03;17.00;96.40
25450;DHT22;13371;52.080;5.624;2023-08-30T06:54:33;16.60;97.50
25450;DHT22;13371;52.080;5.624;2023-08-30T06:57:00;16.60;97.60
25450;DHT22;13371;52.080;5.624;2023-08-30T06:59:29;16.50;98.30
25450;DHT22;13371;52.080;5.624;2023-08-30T07:01:55;16.60;98.20
25450;DHT22;13371;52.080;5.624;2023-08-30T07:04:21;16.80;98.50
25450;DHT22;13371;52.080;5.624;2023-08-30T07:06:46;16.60;98.60
25450;DHT22;13371;52.080;5.624;2023-08-30T07:09:12;16.50;99.30
25450;DHT22;13371;52.080;5.624;2023-08-30T07:11:38;16.40;99.60
25450;DHT22;13371;52.080;5.624;2023-08-30T07:14:04;16.40;99.90
25450;DHT22;13371;52.080;5.624;2023-08-30T07:16:30;16.50;99.90
25450;DHT22;13371;52.080;5.624;2023-08-30T07:18:59;16.50;99.90
25450;DHT22;13371;52.080;5.624;2023-08-30T07:21:25;16.40;99.90
25450;DHT22;13371;52.080;5.624;2023-08-30T07:23:51;16.50;99.90
25450;DHT22;13371;52.080;5.624;2023-08-30T07:26:16;16.40;99.90
25450;DHT22;13371;52.080;5.624;2023-08-30T07:28:42;16.50;99.90
25450;DHT22;13371;52.080;5.624;2023-08-30T07:31:07;16.40;99.90
25450;DHT22;13371;52.080;5.624;2023-08-30T07:33:33;16.30;99.90
25450;DHT22;13371;52.080;5.624;2023-08-30T07:35:59;16.50;99.90
25450;DHT22;13371;52.080;5.624;2023-08-30T07:38:25;16.60;99.90
25450;DHT22;13371;52.080;5.624;2023-08-30T07:40:50;16.80;99.90
25450;DHT22;13371;52.080;5.624;2023-08-30T07:43:16;16.90;99.90
25450;DHT22;13371;52.080;5.624;2023-08-30T07:45:41;16.60;99.90
25450;DHT22;13371;52.080;5.624;2023-08-30T07:48:07;16.30;99.90
25450;DHT22;13371;52.080;5.624;2023-08-30T07:50:32;16.40;99.90
25450;DHT22;13371;52.080;5.624;2023-08-30T07:52:58;15.90;99.90
25450;DHT22;13371;52.080;5.624;2023-08-30T07:55:24;15.80;99.90
25450;DHT22;13371;52.080;5.624;2023-08-30T07:57:49;16.00;99.90
25450;DHT22;13371;52.080;5.624;2023-08-30T08:00:15;16.00;99.90
25450;DHT22;13371;52.080;5.624;2023-08-30T08:02:41;16.20;99.90
25450;DHT22;13371;52.080;5.624;2023-08-30T08:05:07;16.20;99.90
25450;DHT22;13371;52.080;5.624;2023-08-30T08:07:32;16.10;99.90
25450;DHT22;13371;52.080;5.624;2023-08-30T08:09:58;16.20;99.90
25450;DHT22;13371;52.080;5.624;2023-08-30T08:12:24;16.20;99.90
25450;DHT22;13371;52.080;5.624;2023-08-30T08:14:49;16.20;99.90
25450;DHT22;13371;52.080;5.624;2023-08-30T08:17:15;15.90;99.90
25450;DHT22;13371;52.080;5.624;2023-08-30T08:19:41;15.80;99.90
25450;DHT22;13371;52.080;5.624;2023-08-30T08:22:08;16.00;99.90
25450;DHT22;13371;52.080;5.624;2023-08-30T08:24:33;16.00;99.90
25450;DHT22;13371;52.080;5.624;2023-08-30T08:26:59;16.00;99.90
25450;DHT22;13371;52.080;5.624;2023-08-30T08:29:27;16.00;99.90
25450;DHT22;13371;52.080;5.624;2023-08-30T08:31:53;16.20;99.90
25450;DHT22;13371;52.080;5.624;2023-08-30T08:34:19;16.40;99.90
25450;DHT22;13371;52.080;5.624;2023-08-30T08:36:44;16.40;99.90
25450;DHT22;13371;52.080;5.624;2023-08-30T08:39:10;16.20;99.90
25450;DHT22;13371;52.080;5.624;2023-08-30T08:41:40;16.20;99.90
25450;DHT22;13371;52.080;5.624;2023-08-30T08:44:08;16.10;99.90
25450;DHT22;13371;52.080;5.624;2023-08-30T08:46:39;16.30;99.90
25450;DHT22;13371;52.080;5.624;2023-08-30T08:49:15;16.30;99.90
25450;DHT22;13371;52.080;5.624;2023-08-30T08:51:42;16.40;99.90
25450;DHT22;13371;52.080;5.624;2023-08-30T08:54:09;16.10;99.90
25450;DHT22;13371;52.080;5.624;2023-08-30T08:56:35;16.30;99.90
25450;DHT22;13371;52.080;5.624;2023-08-30T08:59:02;16.40;99.90
25450;DHT22;13371;52.080;5.624;2023-08-30T09:01:28;16.60;99.90
25450;DHT22;13371;52.080;5.624;2023-08-30T09:03:54;16.80;99.90
25450;DHT22;13371;52.080;5.624;2023-08-30T09:06:20;16.60;99.90
25450;DHT22;13371;52.080;5.624;2023-08-30T09:08:46;16.30;99.90
25450;DHT22;13371;52.080;5.624;2023-08-30T09:11:12;16.10;99.90
25450;DHT22;13371;52.080;5.624;2023-08-30T09:13:37;16.20;99.90
25450;DHT22;13371;52.080;5.624;2023-08-30T09:16:12;16.30;99.90
25450;DHT22;13371;52.080;5.624;2023-08-30T09:18:38;16.50;99.90
25450;DHT22;13371;52.080;5.624;2023-08-30T09:21:07;16.40;99.90
25450;DHT22;13371;52.080;5.624;2023-08-30T09:23:33;16.60;99.90
25450;DHT22;13371;52.080;5.624;2023-08-30T09:26:00;16.20;99.90
25450;DHT22;13371;52.080;5.624;2023-08-30T09:28:26;16.10;99.90
25450;DHT22;13371;52.080;5.624;2023-08-30T09:30:52;16.30;99.90
25450;DHT22;13371;52.080;5.624;2023-08-30T09:33:31;16.40;99.90
25450;DHT22;13371;52.080;5.624;2023-08-30T09:35:57;16.40;99.90
25450;DHT22;13371;52.080;5.624;2023-08-30T09:38:24;16.50;99.90
25450;DHT22;13371;52.080;5.624;2023-08-30T09:40:51;16.80;99.90
25450;DHT22;13371;52.080;5.624;2023-08-30T09:43:20;16.60;99.90
25450;DHT22;13371;52.080;5.624;2023-08-30T09:45:50;16.70;99.90
25450;DHT22;13371;52.080;5.624;2023-08-30T09:48:20;16.50;99.90
25450;DHT22;13371;52.080;5.624;2023-08-30T09:50:52;16.70;99.90
25450;DHT22;13371;52.080;5.624;2023-08-30T09:53:21;16.80;99.90
25450;DHT22;13371;52.080;5.624;2023-08-30T09:55:48;17.00;99.90
25450;DHT22;13371;52.080;5.624;2023-08-30T09:58:15;17.20;99.90
25450;DHT22;13371;52.080;5.624;2023-08-30T10:00:41;17.30;99.90
25450;DHT22;13371;52.080;5.624;2023-08-30T10:03:08;17.50;99.90
25450;DHT22;13371;52.080;5.624;2023-08-30T10:05:35;17.50;99.90
25450;DHT22;13371;52.080;5.624;2023-08-30T10:08:01;17.50;99.90
25450;DHT22;13371;52.080;5.624;2023-08-30T10:10:30;17.40;99.90
25450;DHT22;13371;52.080;5.624;2023-08-30T10:12:56;17.50;99.90
25450;DHT22;13371;52.080;5.624;2023-08-30T10:15:23;17.60;99.90
25450;DHT22;13371;52.080;5.624;2023-08-30T10:17:53;17.50;99.90
25450;DHT22;13371;52.080;5.624;2023-08-30T10:20:19;17.70;99.90
25450;DHT22;13371;52.080;5.624;2023-08-30T10:22:46;17.80;99.90
25450;DHT22;13371;52.080;5.624;2023-08-30T10:25:20;17.90;99.90
25450;DHT22;13371;52.080;5.624;2023-08-30T10:27:47;18.00;99.90
25450;DHT22;13371;52.080;5.624;2023-08-30T10:30:15;18.10;99.90
25450;DHT22;13371;52.080;5.624;2023-08-30T10:32:42;18.50;99.90
25450;DHT22;13371;52.080;5.624;2023-08-30T10:35:11;18.50;99.90
25450;DHT22;13371;52.080;5.624;2023-08-30T10:37:37;18.60;99.90
25450;DHT22;13371;52.080;5.624;2023-08-30T10:40:04;18.40;99.90
25450;DHT22;13371;52.080;5.624;2023-08-30T10:42:31;18.60;99.90
25450;DHT22;13371;52.080;5.624;2023-08-30T10:45:04;18.80;99.90
25450;DHT22;13371;52.080;5.624;2023-08-30T10:47:32;18.90;99.90
25450;DHT22;13371;52.080;5.624;2023-08-30T10:50:07;18.80;99.90
25450;DHT22;13371;52.080;5.624;2023-08-30T10:52:33;18.70;99.90
25450;DHT22;13371;52.080;5.624;2023-08-30T10:55:15;18.90;99.90
25450;DHT22;13371;52.080;5.624;2023-08-30T10:57:45;18.90;99.90
25450;DHT22;13371;52.080;5.624;2023-08-30T11:02:45;19.00;99.90
25450;DHT22;13371;52.080;5.624;2023-08-30T11:05:16;19.40;99.90
25450;DHT22;13371;52.080;5.624;2023-08-30T11:07:45;19.90;99.90
25450;DHT22;13371;52.080;5.624;2023-08-30T11:10:12;20.10;99.90
25450;DHT22;13371;52.080;5.624;2023-08-30T11:12:40;20.50;99.90
25450;DHT22;13371;52.080;5.624;2023-08-30T11:15:07;20.60;99.90
25450;DHT22;13371;52.080;5.624;2023-08-30T11:17:34;20.40;99.40
25450;DHT22;13371;52.080;5.624;2023-08-30T11:20:06;20.60;99.90
25450;DHT22;13371;52.080;5.624;2023-08-30T11:22:39;20.60;99.90
25450;DHT22;13371;52.080;5.624;2023-08-30T11:25:05;20.40;98.50
25450;DHT22;13371;52.080;5.624;2023-08-30T11:27:31;20.40;99.10
25450;DHT22;13371;52.080;5.624;2023-08-30T11:30:00;20.20;98.40
25450;DHT22;13371;52.080;5.624;2023-08-30T11:32:32;20.20;97.80
25450;DHT22;13371;52.080;5.624;2023-08-30T11:34:58;20.20;98.20
25450;DHT22;13371;52.080;5.624;2023-08-30T11:37:26;20.50;99.60
25450;DHT22;13371;52.080;5.624;2023-08-30T11:39:53;20.80;98.50
25450;DHT22;13371;52.080;5.624;2023-08-30T11:42:18;20.80;98.30
25450;DHT22;13371;52.080;5.624;2023-08-30T11:44:45;21.10;99.20
25450;DHT22;13371;52.080;5.624;2023-08-30T11:47:10;20.90;96.60
25450;DHT22;13371;52.080;5.624;2023-08-30T11:49:36;20.70;96.00
25450;DHT22;13371;52.080;5.624;2023-08-30T11:52:04;20.70;96.60
25450;DHT22;13371;52.080;5.624;2023-08-30T11:54:30;20.80;96.60
25450;DHT22;13371;52.080;5.624;2023-08-30T11:56:56;21.00;97.90
25450;DHT22;13371;52.080;5.624;2023-08-30T11:59:22;21.40;99.20
25450;DHT22;13371;52.080;5.624;2023-08-30T12:01:49;21.60;97.20
25450;DHT22;13371;52.080;5.624;2023-08-30T12:04:14;21.80;95.90
25450;DHT22;13371;52.080;5.624;2023-08-30T12:06:40;21.70;96.30
25450;DHT22;13371;52.080;5.624;2023-08-30T12:09:11;21.70;95.00
25450;DHT22;13371;52.080;5.624;2023-08-30T12:11:37;21.40;95.40
25450;DHT22;13371;52.080;5.624;2023-08-30T12:14:03;21.30;95.90
25450;DHT22;13371;52.080;5.624;2023-08-30T12:16:28;21.20;95.50
25450;DHT22;13371;52.080;5.624;2023-08-30T12:18:54;21.40;95.40
25450;DHT22;13371;52.080;5.624;2023-08-30T12:21:20;21.30;94.80
25450;DHT22;13371;52.080;5.624;2023-08-30T12:23:46;21.30;95.90
25450;DHT22;13371;52.080;5.624;2023-08-30T12:26:11;21.10;94.50
25450;DHT22;13371;52.080;5.624;2023-08-30T12:28:41;21.00;95.30
25450;DHT22;13371;52.080;5.624;2023-08-30T12:31:10;20.90;95.10
25450;DHT22;13371;52.080;5.624;2023-08-30T12:33:36;21.00;95.60
25450;DHT22;13371;52.080;5.624;2023-08-30T12:36:02;21.20;96.30
25450;DHT22;13371;52.080;5.624;2023-08-30T12:38:29;21.30;94.90
25450;DHT22;13371;52.080;5.624;2023-08-30T12:40:55;21.30;95.10
25450;DHT22;13371;52.080;5.624;2023-08-30T12:43:21;21.30;95.00
25450;DHT22;13371;52.080;5.624;2023-08-30T12:45:48;21.50;95.30
25450;DHT22;13371;52.080;5.624;2023-08-30T12:48:16;21.60;94.20
25450;DHT22;13371;52.080;5.624;2023-08-30T12:50:44;21.70;95.10
25450;DHT22;13371;52.080;5.624;2023-08-30T12:53:10;21.80;94.10
25450;DHT22;13371;52.080;5.624;2023-08-30T12:55:36;21.70;93.30
25450;DHT22;13371;52.080;5.624;2023-08-30T12:58:02;21.70;95.40
25450;DHT22;13371;52.080;5.624;2023-08-30T13:00:28;21.80;91.70
25450;DHT22;13371;52.080;5.624;2023-08-30T13:02:54;21.80;92.70
25450;DHT22;13371;52.080;5.624;2023-08-30T13:05:20;21.80;92.30
25450;DHT22;13371;52.080;5.624;2023-08-30T13:07:47;21.90;91.90
25450;DHT22;13371;52.080;5.624;2023-08-30T13:10:13;22.00;91.50
25450;DHT22;13371;52.080;5.624;2023-08-30T13:12:40;22.00;91.40
25450;DHT22;13371;52.080;5.624;2023-08-30T13:15:06;21.80;89.80
25450;DHT22;13371;52.080;5.624;2023-08-30T13:17:33;21.60;91.40
25450;DHT22;13371;52.080;5.624;2023-08-30T13:19:58;21.50;88.10
25450;DHT22;13371;52.080;5.624;2023-08-30T13:22:24;21.50;88.40
25450;DHT22;13371;52.080;5.624;2023-08-30T13:24:51;21.60;90.20
25450;DHT22;13371;52.080;5.624;2023-08-30T13:27:18;22.00;88.60
25450;DHT22;13371;52.080;5.624;2023-08-30T13:29:43;22.00;90.00
25450;DHT22;13371;52.080;5.624;2023-08-30T13:32:09;22.10;91.30
25450;DHT22;13371;52.080;5.624;2023-08-30T13:34:35;22.10;85.50
25450;DHT22;13371;52.080;5.624;2023-08-30T13:37:00;22.20;88.80
25450;DHT22;13371;52.080;5.624;2023-08-30T13:39:26;22.10;87.70
25450;DHT22;13371;52.080;5.624;2023-08-30T13:41:51;22.00;90.30
25450;DHT22;13371;52.080;5.624;2023-08-30T13:44:17;22.10;86.50
25450;DHT22;13371;52.080;5.624;2023-08-30T13:46:43;22.20;88.70
25450;DHT22;13371;52.080;5.624;2023-08-30T13:49:09;22.10;87.10
25450;DHT22;13371;52.080;5.624;2023-08-30T13:51:35;22.10;91.40
25450;DHT22;13371;52.080;5.624;2023-08-30T13:54:01;22.00;91.00
25450;DHT22;13371;52.080;5.624;2023-08-30T13:56:27;21.70;86.70
25450;DHT22;13371;52.080;5.624;2023-08-30T13:58:52;21.20;91.10
25450;DHT22;13371;52.080;5.624;2023-08-30T14:01:18;21.00;90.80
25450;DHT22;13371;52.080;5.624;2023-08-30T14:03:44;21.20;90.70
25450;DHT22;13371;52.080;5.624;2023-08-30T14:06:10;21.20;91.50
25450;DHT22;13371;52.080;5.624;2023-08-30T14:08:36;21.50;91.10
25450;DHT22;13371;52.080;5.624;2023-08-30T14:11:01;21.80;92.90
25450;DHT22;13371;52.080;5.624;2023-08-30T14:13:27;21.80;90.40
25450;DHT22;13371;52.080;5.624;2023-08-30T14:15:59;21.70;91.00
25450;DHT22;13371;52.080;5.624;2023-08-30T14:18:26;21.60;89.30
25450;DHT22;13371;52.080;5.624;2023-08-30T14:20:55;21.30;90.20
25450;DHT22;13371;52.080;5.624;2023-08-30T14:23:22;21.20;90.70
25450;DHT22;13371;52.080;5.624;2023-08-30T14:25:55;21.40;91.20
25450;DHT22;13371;52.080;5.624;2023-08-30T14:28:21;21.50;91.10
25450;DHT22;13371;52.080;5.624;2023-08-30T14:30:47;21.70;91.20
25450;DHT22;13371;52.080;5.624;2023-08-30T14:33:12;22.10;91.70
25450;DHT22;13371;52.080;5.624;2023-08-30T14:35:41;21.60;91.40
25450;DHT22;13371;52.080;5.624;2023-08-30T14:38:07;21.20;91.50
25450;DHT22;13371;52.080;5.624;2023-08-30T14:40:33;20.90;92.60
25450;DHT22;13371;52.080;5.624;2023-08-30T14:42:58;20.40;94.20
25450;DHT22;13371;52.080;5.624;2023-08-30T14:45:24;20.20;95.70
25450;DHT22;13371;52.080;5.624;2023-08-30T14:47:49;19.80;96.20
25450;DHT22;13371;52.080;5.624;2023-08-30T14:50:15;19.80;97.60
25450;DHT22;13371;52.080;5.624;2023-08-30T14:52:40;19.50;97.00
25450;DHT22;13371;52.080;5.624;2023-08-30T14:55:07;19.40;98.20
25450;DHT22;13371;52.080;5.624;2023-08-30T14:57:32;19.30;98.30
25450;DHT22;13371;52.080;5.624;2023-08-30T14:59:58;19.40;98.20
25450;DHT22;13371;52.080;5.624;2023-08-30T15:02:23;19.50;98.60
25450;DHT22;13371;52.080;5.624;2023-08-30T15:04:49;19.50;98.00
25450;DHT22;13371;52.080;5.624;2023-08-30T15:07:15;19.40;98.20
25450;DHT22;13371;52.080;5.624;2023-08-30T15:09:40;19.40;98.90
25450;DHT22;13371;52.080;5.624;2023-08-30T15:12:06;19.40;99.20
25450;DHT22;13371;52.080;5.624;2023-08-30T15:14:32;19.50;99.70
25450;DHT22;13371;52.080;5.624;2023-08-30T15:16:58;19.70;99.90
25450;DHT22;13371;52.080;5.624;2023-08-30T15:19:23;19.70;99.80
25450;DHT22;13371;52.080;5.624;2023-08-30T15:21:49;19.80;99.70
25450;DHT22;13371;52.080;5.624;2023-08-30T15:24:14;19.80;99.10
25450;DHT22;13371;52.080;5.624;2023-08-30T15:26:42;20.00;99.30
25450;DHT22;13371;52.080;5.624;2023-08-30T15:29:08;20.10;98.30
25450;DHT22;13371;52.080;5.624;2023-08-30T15:31:34;20.10;98.00
25450;DHT22;13371;52.080;5.624;2023-08-30T15:33:59;20.40;98.10